sensor_id;sensor_type;location;lat;lon;timestamp;P1;durP1;ratioP1;P2;durP2;ratioP2
3997;SDS011;61314;53.444;9.902;2022-10-22T00:00:10;29.63;;;18.33;;
3997;SDS011;61314;53.444;9.902;2022-10-22T00:02:38;33.50;;;19.00;;
3997;SDS011;61314;53.444;9.902;2022-10-22T00:05:05;32.67;;;18.53;;
3997;SDS011;61314;53.444;9.902;2022-10-22T00:07:33;26.67;;;18.60;;
3997;SDS011;61314;53.444;9.902;2022-10-22T00:10:00;28.00;;;18.37;;
3997;SDS011;61314;53.444;9.902;2022-10-22T00:12:27;27.07;;;18.70;;
3997;SDS011;61314;53.444;9.902;2022-10-22T00:14:54;36.20;;;20.50;;
3997;SDS011;61314;53.444;9.902;2022-10-22T00:17:21;29.43;;;18.43;;
3997;SDS011;61314;53.444;9.902;2022-10-22T00:19:48;32.17;;;20.80;;
3997;SDS011;61314;53.444;9.902;2022-10-22T00:22:15;23.77;;;19.37;;
3997;SDS011;61314;53.444;9.902;2022-10-22T00:24:42;31.50;;;19.30;;
3997;SDS011;61314;53.444;9.902;2022-10-22T00:27:09;31.20;;;19.50;;
3997;SDS011;61314;53.444;9.902;2022-10-22T00:29:37;32.57;;;21.10;;
3997;SDS011;61314;53.444;9.902;2022-10-22T00:32:04;27.17;;;19.47;;
3997;SDS011;61314;53.444;9.902;2022-10-22T00:34:31;26.27;;;18.50;;
3997;SDS011;61314;53.444;9.902;2022-10-22T00:36:59;29.90;;;18.60;;
3997;SDS011;61314;53.444;9.902;2022-10-22T00:39:26;34.53;;;19.23;;
3997;SDS011;61314;53.444;9.902;2022-10-22T00:41:54;29.57;;;19.43;;
3997;SDS011;61314;53.444;9.902;2022-10-22T00:47:07;30.30;;;19.07;;
3997;SDS011;61314;53.444;9.902;2022-10-22T00:49:34;32.50;;;19.43;;
3997;SDS011;61314;53.444;9.902;2022-10-22T00:52:01;35.00;;;21.10;;
3997;SDS011;61314;53.444;9.902;2022-10-22T00:54:28;28.70;;;19.77;;
3997;SDS011;61314;53.444;9.902;2022-10-22T00:56:55;37.70;;;20.53;;
3997;SDS011;61314;53.444;9.902;2022-10-22T00:59:22;35.03;;;22.20;;
3997;SDS011;61314;53.444;9.902;2022-10-22T01:01:49;33.30;;;21.70;;
3997;SDS011;61314;53.444;9.902;2022-10-22T01:04:18;30.20;;;19.77;;
3997;SDS011;61314;53.444;9.902;2022-10-22T01:06:45;37.73;;;20.53;;
3997;SDS011;61314;53.444;9.902;2022-10-22T01:17:05;31.73;;;19.77;;
3997;SDS011;61314;53.444;9.902;2022-10-22T01:22:21;32.37;;;20.23;;
3997;SDS011;61314;53.444;9.902;2022-10-22T01:27:26;29.20;;;20.70;;
3997;SDS011;61314;53.444;9.902;2022-10-22T01:29:59;32.93;;;20.40;;
3997;SDS011;61314;53.444;9.902;2022-10-22T01:32:28;34.20;;;20.50;;
3997;SDS011;61314;53.444;9.902;2022-10-22T01:35:00;31.13;;;19.40;;
3997;SDS011;61314;53.444;9.902;2022-10-22T01:37:29;33.20;;;20.00;;
3997;SDS011;61314;53.444;9.902;2022-10-22T01:39:58;30.50;;;19.27;;
3997;SDS011;61314;53.444;9.902;2022-10-22T01:42:25;35.00;;;20.50;;
3997;SDS011;61314;53.444;9.902;2022-10-22T01:44:52;30.53;;;21.30;;
3997;SDS011;61314;53.444;9.902;2022-10-22T01:52:46;27.33;;;20.30;;
3997;SDS011;61314;53.444;9.902;2022-10-22T01:55:34;32.10;;;18.73;;
3997;SDS011;61314;53.444;9.902;2022-10-22T02:00:45;27.80;;;19.20;;
3997;SDS011;61314;53.444;9.902;2022-10-22T02:03:15;27.47;;;18.70;;
3997;SDS011;61314;53.444;9.902;2022-10-22T02:05:50;26.50;;;18.83;;
3997;SDS011;61314;53.444;9.902;2022-10-22T02:08:20;32.63;;;19.90;;
3997;SDS011;61314;53.444;9.902;2022-10-22T02:10:48;28.37;;;19.70;;
3997;SDS011;61314;53.444;9.902;2022-10-22T02:13:22;31.13;;;21.60;;
3997;SDS011;61314;53.444;9.902;2022-10-22T02:15:50;31.20;;;20.47;;
3997;SDS011;61314;53.444;9.902;2022-10-22T02:18:18;26.00;;;19.90;;
3997;SDS011;61314;53.444;9.902;2022-10-22T02:20:46;28.63;;;17.80;;
3997;SDS011;61314;53.444;9.902;2022-10-22T02:23:14;22.90;;;17.90;;
3997;SDS011;61314;53.444;9.902;2022-10-22T02:25:43;28.43;;;17.60;;
3997;SDS011;61314;53.444;9.902;2022-10-22T02:28:23;25.93;;;18.30;;
3997;SDS011;61314;53.444;9.902;2022-10-22T02:30:52;24.97;;;18.90;;
3997;SDS011;61314;53.444;9.902;2022-10-22T02:33:25;24.67;;;18.17;;
3997;SDS011;61314;53.444;9.902;2022-10-22T02:35:54;25.40;;;18.53;;
3997;SDS011;61314;53.444;9.902;2022-10-22T02:38:22;28.23;;;20.87;;
3997;SDS011;61314;53.444;9.902;2022-10-22T02:40:49;25.50;;;18.50;;
3997;SDS011;61314;53.444;9.902;2022-10-22T02:43:17;21.93;;;17.93;;
3997;SDS011;61314;53.444;9.902;2022-10-22T02:45:44;30.73;;;20.17;;
3997;SDS011;61314;53.444;9.902;2022-10-22T02:48:11;22.93;;;18.13;;
3997;SDS011;61314;53.444;9.902;2022-10-22T02:50:38;29.87;;;19.40;;
3997;SDS011;61314;53.444;9.902;2022-10-22T02:53:06;27.53;;;18.23;;
3997;SDS011;61314;53.444;9.902;2022-10-22T02:55:33;26.70;;;19.47;;
3997;SDS011;61314;53.444;9.902;2022-10-22T02:58:00;27.87;;;18.70;;
3997;SDS011;61314;53.444;9.902;2022-10-22T03:00:27;27.67;;;19.77;;
3997;SDS011;61314;53.444;9.902;2022-10-22T03:02:54;27.57;;;18.40;;
3997;SDS011;61314;53.444;9.902;2022-10-22T03:05:21;32.60;;;20.90;;
3997;SDS011;61314;53.444;9.902;2022-10-22T03:07:48;28.40;;;18.80;;
3997;SDS011;61314;53.444;9.902;2022-10-22T03:10:15;28.60;;;20.20;;
3997;SDS011;61314;53.444;9.902;2022-10-22T03:12:42;26.90;;;18.63;;
3997;SDS011;61314;53.444;9.902;2022-10-22T03:15:09;30.90;;;20.47;;
3997;SDS011;61314;53.444;9.902;2022-10-22T03:17:36;32.13;;;19.53;;
3997;SDS011;61314;53.444;9.902;2022-10-22T03:20:03;28.07;;;18.60;;
3997;SDS011;61314;53.444;9.902;2022-10-22T03:22:31;27.47;;;19.60;;
3997;SDS011;61314;53.444;9.902;2022-10-22T03:24:59;33.20;;;21.07;;
3997;SDS011;61314;53.444;9.902;2022-10-22T03:27:28;32.07;;;21.90;;
3997;SDS011;61314;53.444;9.902;2022-10-22T03:29:56;30.60;;;20.03;;
3997;SDS011;61314;53.444;9.902;2022-10-22T03:32:23;29.87;;;20.67;;
3997;SDS011;61314;53.444;9.902;2022-10-22T03:34:50;37.17;;;23.23;;
3997;SDS011;61314;53.444;9.902;2022-10-22T03:37:17;37.00;;;24.70;;
3997;SDS011;61314;53.444;9.902;2022-10-22T03:39:44;39.20;;;21.97;;
3997;SDS011;61314;53.444;9.902;2022-10-22T03:42:12;35.57;;;23.60;;
3997;SDS011;61314;53.444;9.902;2022-10-22T03:44:39;40.60;;;23.90;;
3997;SDS011;61314;53.444;9.902;2022-10-22T03:47:06;41.23;;;24.60;;
3997;SDS011;61314;53.444;9.902;2022-10-22T03:49:33;36.83;;;23.03;;
3997;SDS011;61314;53.444;9.902;2022-10-22T03:52:07;40.90;;;24.73;;
3997;SDS011;61314;53.444;9.902;2022-10-22T03:54:34;44.50;;;25.97;;
3997;SDS011;61314;53.444;9.902;2022-10-22T03:57:06;40.33;;;25.67;;
3997;SDS011;61314;53.444;9.902;2022-10-22T03:59:37;40.33;;;26.50;;
3997;SDS011;61314;53.444;9.902;2022-10-22T04:02:04;36.97;;;23.40;;
3997;SDS011;61314;53.444;9.902;2022-10-22T04:04:31;42.83;;;27.13;;
3997;SDS011;61314;53.444;9.902;2022-10-22T04:06:58;48.87;;;26.17;;
3997;SDS011;61314;53.444;9.902;2022-10-22T04:09:26;43.90;;;25.43;;
3997;SDS011;61314;53.444;9.902;2022-10-22T04:11:53;45.03;;;27.47;;
3997;SDS011;61314;53.444;9.902;2022-10-22T04:14:20;42.97;;;26.47;;
3997;SDS011;61314;53.444;9.902;2022-10-22T04:16:46;40.40;;;24.67;;
3997;SDS011;61314;53.444;9.902;2022-10-22T04:19:13;47.00;;;28.10;;
3997;SDS011;61314;53.444;9.902;2022-10-22T04:21:41;48.07;;;27.07;;
3997;SDS011;61314;53.444;9.902;2022-10-22T04:24:07;44.27;;;26.17;;
3997;SDS011;61314;53.444;9.902;2022-10-22T04:26:34;43.20;;;25.47;;
3997;SDS011;61314;53.444;9.902;2022-10-22T04:29:02;33.13;;;22.97;;
3997;SDS011;61314;53.444;9.902;2022-10-22T04:31:29;40.20;;;25.47;;
3997;SDS011;61314;53.444;9.902;2022-10-22T04:33:56;40.57;;;26.47;;
3997;SDS011;61314;53.444;9.902;2022-10-22T04:36:24;38.30;;;21.73;;
3997;SDS011;61314;53.444;9.902;2022-10-22T04:38:52;42.93;;;24.20;;
3997;SDS011;61314;53.444;9.902;2022-10-22T04:41:21;41.67;;;25.37;;
3997;SDS011;61314;53.444;9.902;2022-10-22T04:43:48;49.90;;;26.93;;
3997;SDS011;61314;53.444;9.902;2022-10-22T04:46:16;39.77;;;26.00;;
3997;SDS011;61314;53.444;9.902;2022-10-22T04:48:43;45.97;;;29.00;;
3997;SDS011;61314;53.444;9.902;2022-10-22T04:51:11;44.77;;;26.73;;
3997;SDS011;61314;53.444;9.902;2022-10-22T04:53:39;38.53;;;24.80;;
3997;SDS011;61314;53.444;9.902;2022-10-22T04:56:07;37.40;;;23.27;;
3997;SDS011;61314;53.444;9.902;2022-10-22T04:58:34;37.87;;;24.20;;
3997;SDS011;61314;53.444;9.902;2022-10-22T05:01:08;46.20;;;25.80;;
3997;SDS011;61314;53.444;9.902;2022-10-22T05:03:35;49.97;;;25.60;;
3997;SDS011;61314;53.444;9.902;2022-10-22T05:06:02;51.57;;;25.67;;
3997;SDS011;61314;53.444;9.902;2022-10-22T05:08:29;47.53;;;24.40;;
3997;SDS011;61314;53.444;9.902;2022-10-22T05:10:56;39.10;;;25.53;;
3997;SDS011;61314;53.444;9.902;2022-10-22T05:13:23;39.87;;;24.67;;
3997;SDS011;61314;53.444;9.902;2022-10-22T05:15:50;37.73;;;23.23;;
3997;SDS011;61314;53.444;9.902;2022-10-22T05:18:17;42.13;;;23.73;;
3997;SDS011;61314;53.444;9.902;2022-10-22T05:20:47;38.70;;;25.00;;
3997;SDS011;61314;53.444;9.902;2022-10-22T05:23:14;36.03;;;23.93;;
3997;SDS011;61314;53.444;9.902;2022-10-22T05:25:41;42.93;;;25.73;;
3997;SDS011;61314;53.444;9.902;2022-10-22T05:28:08;41.80;;;26.17;;
3997;SDS011;61314;53.444;9.902;2022-10-22T05:30:35;39.70;;;24.70;;
3997;SDS011;61314;53.444;9.902;2022-10-22T05:33:02;49.53;;;26.57;;
3997;SDS011;61314;53.444;9.902;2022-10-22T05:35:29;44.43;;;26.57;;
3997;SDS011;61314;53.444;9.902;2022-10-22T05:37:56;44.70;;;25.63;;
3997;SDS011;61314;53.444;9.902;2022-10-22T05:40:23;44.07;;;26.67;;
3997;SDS011;61314;53.444;9.902;2022-10-22T05:42:57;53.77;;;28.30;;
3997;SDS011;61314;53.444;9.902;2022-10-22T05:45:24;49.37;;;29.47;;
3997;SDS011;61314;53.444;9.902;2022-10-22T05:47:51;49.10;;;27.30;;
3997;SDS011;61314;53.444;9.902;2022-10-22T05:50:18;44.10;;;26.30;;
3997;SDS011;61314;53.444;9.902;2022-10-22T05:52:45;40.03;;;25.10;;
3997;SDS011;61314;53.444;9.902;2022-10-22T05:55:12;42.53;;;26.60;;
3997;SDS011;61314;53.444;9.902;2022-10-22T05:57:39;40.43;;;26.90;;
3997;SDS011;61314;53.444;9.902;2022-10-22T06:00:06;41.37;;;24.63;;
3997;SDS011;61314;53.444;9.902;2022-10-22T06:02:39;45.47;;;26.10;;
3997;SDS011;61314;53.444;9.902;2022-10-22T06:05:06;48.87;;;28.43;;
3997;SDS011;61314;53.444;9.902;2022-10-22T06:07:34;35.73;;;25.00;;
3997;SDS011;61314;53.444;9.902;2022-10-22T06:10:01;36.80;;;23.83;;
3997;SDS011;61314;53.444;9.902;2022-10-22T06:12:28;40.87;;;24.50;;
3997;SDS011;61314;53.444;9.902;2022-10-22T06:14:55;39.80;;;25.57;;
3997;SDS011;61314;53.444;9.902;2022-10-22T06:17:22;36.70;;;23.93;;
3997;SDS011;61314;53.444;9.902;2022-10-22T06:19:49;41.53;;;24.30;;
3997;SDS011;61314;53.444;9.902;2022-10-22T06:22:16;39.20;;;21.43;;
3997;SDS011;61314;53.444;9.902;2022-10-22T06:24:43;39.00;;;23.43;;
3997;SDS011;61314;53.444;9.902;2022-10-22T06:27:10;42.33;;;22.60;;
3997;SDS011;61314;53.444;9.902;2022-10-22T06:29:37;33.70;;;22.90;;
3997;SDS011;61314;53.444;9.902;2022-10-22T06:32:04;32.83;;;20.50;;
3997;SDS011;61314;53.444;9.902;2022-10-22T06:34:31;32.03;;;18.90;;
3997;SDS011;61314;53.444;9.902;2022-10-22T06:36:58;38.20;;;20.37;;
3997;SDS011;61314;53.444;9.902;2022-10-22T06:39:25;34.40;;;20.93;;
3997;SDS011;61314;53.444;9.902;2022-10-22T06:41:52;29.10;;;19.57;;
3997;SDS011;61314;53.444;9.902;2022-10-22T06:44:19;37.83;;;20.87;;
3997;SDS011;61314;53.444;9.902;2022-10-22T06:46:49;31.90;;;18.97;;
3997;SDS011;61314;53.444;9.902;2022-10-22T06:49:19;27.90;;;17.90;;
3997;SDS011;61314;53.444;9.902;2022-10-22T06:51:52;27.90;;;18.43;;
3997;SDS011;61314;53.444;9.902;2022-10-22T06:54:20;32.07;;;17.10;;
3997;SDS011;61314;53.444;9.902;2022-10-22T06:56:47;27.07;;;18.00;;
3997;SDS011;61314;53.444;9.902;2022-10-22T06:59:14;28.30;;;17.40;;
3997;SDS011;61314;53.444;9.902;2022-10-22T07:01:41;29.27;;;17.70;;
3997;SDS011;61314;53.444;9.902;2022-10-22T07:04:09;32.00;;;17.73;;
3997;SDS011;61314;53.444;9.902;2022-10-22T07:06:36;35.27;;;18.53;;
3997;SDS011;61314;53.444;9.902;2022-10-22T07:09:03;28.30;;;17.60;;
3997;SDS011;61314;53.444;9.902;2022-10-22T07:11:32;36.83;;;19.30;;
3997;SDS011;61314;53.444;9.902;2022-10-22T07:14:03;23.87;;;16.17;;
3997;SDS011;61314;53.444;9.902;2022-10-22T07:16:30;32.37;;;18.07;;
3997;SDS011;61314;53.444;9.902;2022-10-22T07:18:58;28.40;;;16.80;;
3997;SDS011;61314;53.444;9.902;2022-10-22T07:21:25;32.93;;;18.40;;
3997;SDS011;61314;53.444;9.902;2022-10-22T07:23:53;27.53;;;17.60;;
3997;SDS011;61314;53.444;9.902;2022-10-22T07:26:20;26.63;;;16.20;;
3997;SDS011;61314;53.444;9.902;2022-10-22T07:28:47;25.47;;;16.77;;
3997;SDS011;61314;53.444;9.902;2022-10-22T07:31:14;24.70;;;16.93;;
3997;SDS011;61314;53.444;9.902;2022-10-22T07:33:42;30.23;;;17.03;;
3997;SDS011;61314;53.444;9.902;2022-10-22T07:36:11;32.77;;;16.70;;
3997;SDS011;61314;53.444;9.902;2022-10-22T07:38:43;41.17;;;18.33;;
3997;SDS011;61314;53.444;9.902;2022-10-22T07:41:10;29.47;;;17.77;;
3997;SDS011;61314;53.444;9.902;2022-10-22T07:43:37;28.37;;;15.80;;
3997;SDS011;61314;53.444;9.902;2022-10-22T07:46:04;27.60;;;16.70;;
3997;SDS011;61314;53.444;9.902;2022-10-22T07:48:34;23.40;;;14.33;;
3997;SDS011;61314;53.444;9.902;2022-10-22T07:51:01;29.23;;;15.90;;
3997;SDS011;61314;53.444;9.902;2022-10-22T07:53:28;24.37;;;14.00;;
3997;SDS011;61314;53.444;9.902;2022-10-22T07:55:55;27.30;;;14.17;;
3997;SDS011;61314;53.444;9.902;2022-10-22T07:58:23;27.37;;;15.00;;
3997;SDS011;61314;53.444;9.902;2022-10-22T08:00:50;27.10;;;14.00;;
3997;SDS011;61314;53.444;9.902;2022-10-22T08:03:20;33.03;;;14.90;;
3997;SDS011;61314;53.444;9.902;2022-10-22T08:05:47;20.80;;;14.37;;
3997;SDS011;61314;53.444;9.902;2022-10-22T08:08:14;20.93;;;13.20;;
3997;SDS011;61314;53.444;9.902;2022-10-22T08:10:42;26.33;;;13.07;;
3997;SDS011;61314;53.444;9.902;2022-10-22T08:13:09;17.53;;;11.30;;
3997;SDS011;61314;53.444;9.902;2022-10-22T08:15:36;24.07;;;12.27;;
3997;SDS011;61314;53.444;9.902;2022-10-22T08:18:03;22.90;;;12.07;;
3997;SDS011;61314;53.444;9.902;2022-10-22T08:20:31;27.57;;;11.90;;
3997;SDS011;61314;53.444;9.902;2022-10-22T08:22:58;24.13;;;12.33;;
3997;SDS011;61314;53.444;9.902;2022-10-22T08:25:25;23.97;;;11.50;;
3997;SDS011;61314;53.444;9.902;2022-10-22T08:27:52;21.57;;;12.10;;
3997;SDS011;61314;53.444;9.902;2022-10-22T08:30:19;19.17;;;12.57;;
3997;SDS011;61314;53.444;9.902;2022-10-22T08:32:46;17.07;;;11.37;;
3997;SDS011;61314;53.444;9.902;2022-10-22T08:35:19;20.23;;;10.20;;
3997;SDS011;61314;53.444;9.902;2022-10-22T08:37:46;20.53;;;12.03;;
3997;SDS011;61314;53.444;9.902;2022-10-22T08:40:18;27.53;;;10.73;;
3997;SDS011;61314;53.444;9.902;2022-10-22T08:45:23;12.80;;;8.80;;
3997;SDS011;61314;53.444;9.902;2022-10-22T08:48:05;19.40;;;9.43;;
3997;SDS011;61314;53.444;9.902;2022-10-22T08:50:37;17.10;;;9.50;;
3997;SDS011;61314;53.444;9.902;2022-10-22T08:53:06;17.00;;;8.10;;
3997;SDS011;61314;53.444;9.902;2022-10-22T08:55:33;12.53;;;8.90;;
3997;SDS011;61314;53.444;9.902;2022-10-22T08:58:05;17.67;;;7.77;;
3997;SDS011;61314;53.444;9.902;2022-10-22T09:00:44;13.23;;;7.57;;
3997;SDS011;61314;53.444;9.902;2022-10-22T09:05:45;13.83;;;7.10;;
3997;SDS011;61314;53.444;9.902;2022-10-22T09:08:14;17.63;;;7.33;;
3997;SDS011;61314;53.444;9.902;2022-10-22T09:10:45;10.83;;;6.00;;
3997;SDS011;61314;53.444;9.902;2022-10-22T09:13:20;20.07;;;7.50;;
3997;SDS011;61314;53.444;9.902;2022-10-22T09:15:50;9.10;;;5.70;;
3997;SDS011;61314;53.444;9.902;2022-10-22T09:18:22;16.33;;;6.20;;
3997;SDS011;61314;53.444;9.902;2022-10-22T09:20:55;11.40;;;6.07;;
3997;SDS011;61314;53.444;9.902;2022-10-22T09:23:36;10.60;;;5.90;;
3997;SDS011;61314;53.444;9.902;2022-10-22T09:26:11;20.73;;;5.80;;
3997;SDS011;61314;53.444;9.902;2022-10-22T09:28:40;13.37;;;5.67;;
3997;SDS011;61314;53.444;9.902;2022-10-22T09:31:09;5.57;;;4.97;;
3997;SDS011;61314;53.444;9.902;2022-10-22T09:33:37;8.70;;;4.00;;
3997;SDS011;61314;53.444;9.902;2022-10-22T09:36:04;6.23;;;4.33;;
3997;SDS011;61314;53.444;9.902;2022-10-22T09:38:35;4.77;;;4.27;;
3997;SDS011;61314;53.444;9.902;2022-10-22T09:41:04;11.43;;;4.40;;
3997;SDS011;61314;53.444;9.902;2022-10-22T09:43:32;13.23;;;4.20;;
3997;SDS011;61314;53.444;9.902;2022-10-22T09:46:02;12.77;;;5.13;;
3997;SDS011;61314;53.444;9.902;2022-10-22T09:48:31;9.00;;;3.80;;
3997;SDS011;61314;53.444;9.902;2022-10-22T09:51:10;3.63;;;3.33;;
3997;SDS011;61314;53.444;9.902;2022-10-22T09:53:42;8.10;;;3.73;;
3997;SDS011;61314;53.444;9.902;2022-10-22T09:58:55;8.60;;;3.60;;
3997;SDS011;61314;53.444;9.902;2022-10-22T10:01:27;7.10;;;4.00;;
3997;SDS011;61314;53.444;9.902;2022-10-22T10:04:01;6.40;;;3.60;;
3997;SDS011;61314;53.444;9.902;2022-10-22T10:06:34;10.23;;;3.97;;
3997;SDS011;61314;53.444;9.902;2022-10-22T10:09:17;5.40;;;3.50;;
3997;SDS011;61314;53.444;9.902;2022-10-22T10:11:45;4.17;;;2.80;;
3997;SDS011;61314;53.444;9.902;2022-10-22T10:19:24;14.67;;;3.50;;
3997;SDS011;61314;53.444;9.902;2022-10-22T10:21:56;8.33;;;3.70;;
3997;SDS011;61314;53.444;9.902;2022-10-22T10:27:14;6.47;;;3.20;;
3997;SDS011;61314;53.444;9.902;2022-10-22T10:35:08;9.63;;;3.30;;
3997;SDS011;61314;53.444;9.902;2022-10-22T10:37:41;7.03;;;2.93;;
3997;SDS011;61314;53.444;9.902;2022-10-22T10:47:55;10.40;;;4.33;;
3997;SDS011;61314;53.444;9.902;2022-10-22T10:50:32;5.87;;;3.07;;
3997;SDS011;61314;53.444;9.902;2022-10-22T10:55:54;5.90;;;3.10;;
3997;SDS011;61314;53.444;9.902;2022-10-22T10:59:08;8.60;;;3.47;;
3997;SDS011;61314;53.444;9.902;2022-10-22T11:01:34;8.50;;;3.43;;
3997;SDS011;61314;53.444;9.902;2022-10-22T11:04:10;11.37;;;3.10;;
3997;SDS011;61314;53.444;9.902;2022-10-22T11:06:39;8.57;;;3.37;;
3997;SDS011;61314;53.444;9.902;2022-10-22T11:09:13;4.07;;;3.03;;
3997;SDS011;61314;53.444;9.902;2022-10-22T11:11:49;8.03;;;5.00;;
3997;SDS011;61314;53.444;9.902;2022-10-22T11:14:18;5.43;;;3.53;;
3997;SDS011;61314;53.444;9.902;2022-10-22T11:19:58;3.80;;;3.50;;
3997;SDS011;61314;53.444;9.902;2022-10-22T11:24:58;8.90;;;4.83;;
3997;SDS011;61314;53.444;9.902;2022-10-22T11:27:32;9.40;;;3.80;;
3997;SDS011;61314;53.444;9.902;2022-10-22T11:30:04;4.70;;;3.37;;
3997;SDS011;61314;53.444;9.902;2022-10-22T11:32:31;8.50;;;4.50;;
3997;SDS011;61314;53.444;9.902;2022-10-22T11:35:00;6.43;;;4.20;;
3997;SDS011;61314;53.444;9.902;2022-10-22T11:37:29;5.27;;;3.63;;
3997;SDS011;61314;53.444;9.902;2022-10-22T11:42:49;8.13;;;4.40;;
3997;SDS011;61314;53.444;9.902;2022-10-22T11:50:20;6.10;;;4.40;;
3997;SDS011;61314;53.444;9.902;2022-10-22T11:52:51;11.20;;;4.43;;
3997;SDS011;61314;53.444;9.902;2022-10-22T12:03:37;5.77;;;5.17;;
3997;SDS011;61314;53.444;9.902;2022-10-22T12:09:01;8.20;;;4.30;;
3997;SDS011;61314;53.444;9.902;2022-10-22T12:11:45;8.73;;;6.13;;
3997;SDS011;61314;53.444;9.902;2022-10-22T12:14:20;9.27;;;5.57;;
3997;SDS011;61314;53.444;9.902;2022-10-22T12:16:52;7.63;;;5.13;;
3997;SDS011;61314;53.444;9.902;2022-10-22T12:19:30;4.93;;;4.53;;
3997;SDS011;61314;53.444;9.902;2022-10-22T12:24:41;7.57;;;4.97;;
3997;SDS011;61314;53.444;9.902;2022-10-22T12:27:14;9.93;;;4.80;;
3997;SDS011;61314;53.444;9.902;2022-10-22T12:29:48;7.27;;;5.40;;
3997;SDS011;61314;53.444;9.902;2022-10-22T12:32:18;12.73;;;5.80;;
3997;SDS011;61314;53.444;9.902;2022-10-22T12:34:46;16.23;;;7.10;;
3997;SDS011;61314;53.444;9.902;2022-10-22T12:37:18;12.93;;;5.83;;
3997;SDS011;61314;53.444;9.902;2022-10-22T12:39:45;5.67;;;5.00;;
3997;SDS011;61314;53.444;9.902;2022-10-22T12:42:13;7.30;;;5.53;;
3997;SDS011;61314;53.444;9.902;2022-10-22T12:44:44;6.10;;;4.87;;
3997;SDS011;61314;53.444;9.902;2022-10-22T12:47:13;6.83;;;4.30;;
3997;SDS011;61314;53.444;9.902;2022-10-22T12:49:42;10.63;;;4.63;;
3997;SDS011;61314;53.444;9.902;2022-10-22T12:52:11;5.07;;;4.50;;
3997;SDS011;61314;53.444;9.902;2022-10-22T12:54:40;13.17;;;5.37;;
3997;SDS011;61314;53.444;9.902;2022-10-22T12:57:11;20.30;;;6.03;;
3997;SDS011;61314;53.444;9.902;2022-10-22T12:59:39;13.53;;;6.40;;
3997;SDS011;61314;53.444;9.902;2022-10-22T13:02:15;10.53;;;6.47;;
3997;SDS011;61314;53.444;9.902;2022-10-22T13:04:54;16.27;;;6.27;;
3997;SDS011;61314;53.444;9.902;2022-10-22T13:07:36;9.30;;;5.33;;
3997;SDS011;61314;53.444;9.902;2022-10-22T13:10:17;11.00;;;5.53;;
3997;SDS011;61314;53.444;9.902;2022-10-22T13:12:47;24.23;;;7.00;;
3997;SDS011;61314;53.444;9.902;2022-10-22T13:15:19;9.00;;;6.00;;
3997;SDS011;61314;53.444;9.902;2022-10-22T13:17:46;19.43;;;6.07;;
3997;SDS011;61314;53.444;9.902;2022-10-22T13:20:16;20.27;;;7.90;;
3997;SDS011;61314;53.444;9.902;2022-10-22T13:23:00;9.60;;;6.00;;
3997;SDS011;61314;53.444;9.902;2022-10-22T13:25:29;23.53;;;7.60;;
3997;SDS011;61314;53.444;9.902;2022-10-22T13:27:57;12.80;;;5.67;;
3997;SDS011;61314;53.444;9.902;2022-10-22T13:30:29;14.23;;;4.57;;
3997;SDS011;61314;53.444;9.902;2022-10-22T13:32:57;6.60;;;3.73;;
3997;SDS011;61314;53.444;9.902;2022-10-22T13:35:26;8.73;;;4.00;;
3997;SDS011;61314;53.444;9.902;2022-10-22T13:37:54;8.07;;;4.10;;
3997;SDS011;61314;53.444;9.902;2022-10-22T13:40:21;8.40;;;4.53;;
3997;SDS011;61314;53.444;9.902;2022-10-22T13:42:48;7.40;;;4.00;;
3997;SDS011;61314;53.444;9.902;2022-10-22T13:45:15;9.90;;;3.90;;
3997;SDS011;61314;53.444;9.902;2022-10-22T13:47:47;9.60;;;4.33;;
3997;SDS011;61314;53.444;9.902;2022-10-22T13:50:15;9.50;;;4.73;;
3997;SDS011;61314;53.444;9.902;2022-10-22T13:52:44;9.93;;;4.27;;
3997;SDS011;61314;53.444;9.902;2022-10-22T13:57:45;10.83;;;3.73;;
3997;SDS011;61314;53.444;9.902;2022-10-22T14:00:14;10.97;;;3.87;;
3997;SDS011;61314;53.444;9.902;2022-10-22T14:02:42;11.03;;;4.17;;
3997;SDS011;61314;53.444;9.902;2022-10-22T14:05:09;11.30;;;3.93;;
3997;SDS011;61314;53.444;9.902;2022-10-22T14:07:37;8.93;;;3.47;;
3997;SDS011;61314;53.444;9.902;2022-10-22T14:10:12;14.10;;;3.47;;
3997;SDS011;61314;53.444;9.902;2022-10-22T14:12:39;8.63;;;3.57;;
3997;SDS011;61314;53.444;9.902;2022-10-22T14:15:08;10.83;;;3.90;;
3997;SDS011;61314;53.444;9.902;2022-10-22T14:17:35;8.40;;;3.40;;
3997;SDS011;61314;53.444;9.902;2022-10-22T14:20:02;11.17;;;4.50;;
3997;SDS011;61314;53.444;9.902;2022-10-22T14:22:29;13.87;;;3.83;;
3997;SDS011;61314;53.444;9.902;2022-10-22T14:24:56;10.83;;;3.80;;
3997;SDS011;61314;53.444;9.902;2022-10-22T14:27:23;7.20;;;3.77;;
3997;SDS011;61314;53.444;9.902;2022-10-22T14:29:50;11.90;;;3.77;;
3997;SDS011;61314;53.444;9.902;2022-10-22T14:32:22;12.30;;;3.27;;
3997;SDS011;61314;53.444;9.902;2022-10-22T14:34:49;13.33;;;4.20;;
3997;SDS011;61314;53.444;9.902;2022-10-22T14:37:17;8.77;;;3.43;;
3997;SDS011;61314;53.444;9.902;2022-10-22T14:39:45;9.00;;;3.70;;
3997;SDS011;61314;53.444;9.902;2022-10-22T14:42:17;8.10;;;3.13;;
3997;SDS011;61314;53.444;9.902;2022-10-22T14:44:45;7.03;;;3.57;;
3997;SDS011;61314;53.444;9.902;2022-10-22T14:47:12;6.10;;;2.83;;
3997;SDS011;61314;53.444;9.902;2022-10-22T14:49:39;6.73;;;3.70;;
3997;SDS011;61314;53.444;9.902;2022-10-22T14:52:06;5.73;;;3.47;;
3997;SDS011;61314;53.444;9.902;2022-10-22T14:54:38;4.97;;;3.37;;
3997;SDS011;61314;53.444;9.902;2022-10-22T14:57:05;16.23;;;4.03;;
3997;SDS011;61314;53.444;9.902;2022-10-22T14:59:32;9.43;;;4.33;;
3997;SDS011;61314;53.444;9.902;2022-10-22T15:01:59;8.77;;;3.90;;
3997;SDS011;61314;53.444;9.902;2022-10-22T15:04:25;9.07;;;3.50;;
3997;SDS011;61314;53.444;9.902;2022-10-22T15:06:53;30.60;;;19.47;;
3997;SDS011;61314;53.444;9.902;2022-10-22T15:09:22;48.37;;;33.50;;
3997;SDS011;61314;53.444;9.902;2022-10-22T15:11:49;32.50;;;23.80;;
3997;SDS011;61314;53.444;9.902;2022-10-22T15:14:16;27.87;;;16.97;;
3997;SDS011;61314;53.444;9.902;2022-10-22T15:16:43;19.83;;;8.13;;
3997;SDS011;61314;53.444;9.902;2022-10-22T15:19:10;17.77;;;8.13;;
3997;SDS011;61314;53.444;9.902;2022-10-22T15:21:37;14.57;;;10.70;;
3997;SDS011;61314;53.444;9.902;2022-10-22T15:24:04;11.50;;;5.60;;
3997;SDS011;61314;53.444;9.902;2022-10-22T15:26:32;9.00;;;4.00;;
3997;SDS011;61314;53.444;9.902;2022-10-22T15:29:00;8.13;;;3.60;;
3997;SDS011;61314;53.444;9.902;2022-10-22T15:34:21;12.07;;;5.07;;
3997;SDS011;61314;53.444;9.902;2022-10-22T15:36:48;13.73;;;4.20;;
3997;SDS011;61314;53.444;9.902;2022-10-22T15:39:15;10.37;;;4.10;;
3997;SDS011;61314;53.444;9.902;2022-10-22T15:41:42;6.80;;;4.57;;
3997;SDS011;61314;53.444;9.902;2022-10-22T15:44:16;4.40;;;3.70;;
3997;SDS011;61314;53.444;9.902;2022-10-22T15:46:44;6.27;;;4.67;;
3997;SDS011;61314;53.444;9.902;2022-10-22T15:49:11;8.43;;;5.17;;
3997;SDS011;61314;53.444;9.902;2022-10-22T15:51:38;6.83;;;5.53;;
3997;SDS011;61314;53.444;9.902;2022-10-22T15:54:05;7.63;;;5.27;;
3997;SDS011;61314;53.444;9.902;2022-10-22T15:56:35;12.33;;;5.10;;
3997;SDS011;61314;53.444;9.902;2022-10-22T15:59:02;5.90;;;5.10;;
3997;SDS011;61314;53.444;9.902;2022-10-22T16:01:29;12.97;;;6.60;;
3997;SDS011;61314;53.444;9.902;2022-10-22T16:03:57;12.43;;;5.40;;
3997;SDS011;61314;53.444;9.902;2022-10-22T16:06:37;7.80;;;5.70;;
3997;SDS011;61314;53.444;9.902;2022-10-22T16:09:06;6.60;;;5.03;;
3997;SDS011;61314;53.444;9.902;2022-10-22T16:11:33;7.00;;;5.20;;
3997;SDS011;61314;53.444;9.902;2022-10-22T16:14:00;13.47;;;5.70;;
3997;SDS011;61314;53.444;9.902;2022-10-22T16:16:28;11.53;;;5.87;;
3997;SDS011;61314;53.444;9.902;2022-10-22T16:18:56;19.27;;;5.90;;
3997;SDS011;61314;53.444;9.902;2022-10-22T16:21:23;11.23;;;6.00;;